Decoded Metar for LLIB (ROSH PINA in ISRAEL) (IATA:RPN) | Meteo·Mobile Aviation Weather
aviador You're here:

LLIB Decoded Metar

ROSH PINA in ISRAEL
Report Time2018-12-16 09:50:00
UTC Time2018-12-16 10:02:11
Flight Rules vfr VFR
Wind140° at 08 kt
W.Decomp.*RWY 15: 7.8 kt HW 1.8 kt LCW
RWY 05: 0.4 kt HW 8.0 kt RCW
W.Rank140° ranks 4
Current wind is above 140° avg. (6.0)
Visibility9999 m
Phenomena:N/A
Clouds:Few 040 Hf
Expected CloudBase > 4,000 ft AGL from Temp-Dew spread
CeilingNone
Temp19°C (ISA +6)
Dew Point09°C (52% RH)
AAT15.9°C
QNH1017 hPa
Density Alt1,627 ft
Elevation922 ft
Report Wrong Elevation
Raw Report
METAR LLIB 160950Z 14008KT 9999 FEW040 19/09 Q1017=

Extra information for LLIB:More info

Metar Taf Metar & Taf Last 4 Metars F.Rules Stats Wind Profile Meteogram Temp Stats Airport Information Weather charts Add Link Nearby VenuesMetar ALERT Operation Metar Decoded Social comments